EXS3040 ENBR-EGNX
Flight info
| Callsign | EXS3040 |
|---|---|
| Flight time | 1h 19m |
| Altitude | 35000 |
| Route | TUXIL DCT ZOL DCT NIVUN/N0423F360 DCT LAMRO DCT OMENU |
| Aircraft | A321/M-SDE3FGHIRWY/LB1 |
Departure
| Time | 2026-04-28 18:34 |
|---|---|
| Airport | Bergen Airport, Flesland (ENBR) |
Arrival
| Time | 2026-04-28 19:54 |
|---|---|
| Airport | East Midlands Airport (EGNX) |
| Time | Latitude | Longitude | Altitude | Speed | Heading |
|---|---|---|---|---|---|
| 2026-04-28 18:05 | 60.28700 | 5.22918 | 173 ft | 0 kts | 80° |
| 2026-04-28 18:25 | 60.28700 | 5.22914 | 173 ft | 2 kts | 81° |
| 2026-04-28 18:25 | 60.28696 | 5.22862 | 173 ft | 4 kts | 81° |
| 2026-04-28 18:26 | 60.28678 | 5.22765 | 171 ft | 4 kts | 36° |
| 2026-04-28 18:26 | 60.28658 | 5.22752 | 170 ft | 1 kts | 351° |
| 2026-04-28 18:26 | 60.28654 | 5.22753 | 170 ft | 0 kts | 351° |
| 2026-04-28 18:29 | 60.28657 | 5.22752 | 170 ft | 1 kts | 350° |
| 2026-04-28 18:30 | 60.28674 | 5.22719 | 170 ft | 6 kts | 303° |
| 2026-04-28 18:30 | 60.28676 | 5.22639 | 167 ft | 11 kts | 259° |
| 2026-04-28 18:30 | 60.28632 | 5.22503 | 165 ft | 10 kts | 182° |
| 2026-04-28 18:30 | 60.28554 | 5.22524 | 165 ft | 13 kts | 172° |
| 2026-04-28 18:31 | 60.28453 | 5.22559 | 162 ft | 17 kts | 169° |
| 2026-04-28 18:31 | 60.28354 | 5.22593 | 159 ft | 10 kts | 171° |
| 2026-04-28 18:31 | 60.28297 | 5.22543 | 157 ft | 10 kts | 237° |
| 2026-04-28 18:31 | 60.28225 | 5.22509 | 153 ft | 14 kts | 169° |
| 2026-04-28 18:32 | 60.28138 | 5.22542 | 153 ft | 10 kts | 170° |
| 2026-04-28 18:32 | 60.28083 | 5.22546 | 152 ft | 8 kts | 201° |
| 2026-04-28 18:32 | 60.28058 | 5.22480 | 152 ft | 4 kts | 251° |
| 2026-04-28 18:32 | 60.28046 | 5.22369 | 150 ft | 10 kts | 261° |
| 2026-04-28 18:33 | 60.28052 | 5.22270 | 150 ft | 7 kts | 311° |
| 2026-04-28 18:33 | 60.28077 | 5.22245 | 150 ft | 4 kts | 347° |
| 2026-04-28 18:33 | 60.28120 | 5.22226 | 150 ft | 11 kts | 348° |
| 2026-04-28 18:33 | 60.28385 | 5.22138 | 159 ft | 72 kts | 350° |
| 2026-04-28 18:34 | 60.29083 | 5.21905 | 162 ft | 129 kts | 350° |
| 2026-04-28 18:34 | 60.30090 | 5.21550 | 395 ft | 153 kts | 348° |
| 2026-04-28 18:34 | 60.31131 | 5.21214 | 1098 ft | 151 kts | 349° |
| 2026-04-28 18:34 | 60.32171 | 5.20887 | 1772 ft | 156 kts | 349° |
| 2026-04-28 18:35 | 60.33314 | 5.20518 | 2124 ft | 175 kts | 349° |
| 2026-04-28 18:35 | 60.34564 | 5.20075 | 2618 ft | 189 kts | 349° |
| 2026-04-28 18:35 | 60.35921 | 5.19574 | 3039 ft | 210 kts | 349° |
| 2026-04-28 18:35 | 60.37386 | 5.18590 | 3462 ft | 235 kts | 326° |
| 2026-04-28 18:36 | 60.38414 | 5.15911 | 4052 ft | 255 kts | 289° |
| 2026-04-28 18:36 | 60.38427 | 5.12319 | 4952 ft | 266 kts | 255° |
| 2026-04-28 18:36 | 60.37390 | 5.09192 | 5851 ft | 277 kts | 221° |
| 2026-04-28 18:36 | 60.35646 | 5.07459 | 6718 ft | 285 kts | 198° |
| 2026-04-28 18:37 | 60.33686 | 5.06653 | 7608 ft | 289 kts | 188° |
| 2026-04-28 18:37 | 60.31666 | 5.06226 | 8432 ft | 295 kts | 185° |
| 2026-04-28 18:37 | 60.29595 | 5.05860 | 9237 ft | 302 kts | 186° |
| 2026-04-28 18:37 | 60.27488 | 5.05367 | 10020 ft | 308 kts | 188° |
| 2026-04-28 18:38 | 60.25335 | 5.04742 | 10688 ft | 319 kts | 189° |
| 2026-04-28 18:38 | 60.23058 | 5.03985 | 10936 ft | 343 kts | 191° |
| 2026-04-28 18:38 | 60.20652 | 5.03115 | 11365 ft | 357 kts | 191° |
| 2026-04-28 18:38 | 60.18226 | 5.02212 | 11991 ft | 363 kts | 191° |
| 2026-04-28 18:39 | 60.15720 | 5.01272 | 12676 ft | 369 kts | 191° |
| 2026-04-28 18:39 | 60.13179 | 5.00321 | 13350 ft | 374 kts | 191° |
| 2026-04-28 18:39 | 60.10602 | 4.99366 | 14032 ft | 379 kts | 191° |
| 2026-04-28 18:39 | 60.07985 | 4.98408 | 14674 ft | 384 kts | 191° |
| 2026-04-28 18:40 | 60.05338 | 4.97450 | 15255 ft | 389 kts | 191° |
| 2026-04-28 18:40 | 60.02658 | 4.96483 | 15860 ft | 394 kts | 191° |
| 2026-04-28 18:40 | 59.99945 | 4.95497 | 16468 ft | 398 kts | 191° |
| 2026-04-28 18:40 | 59.97210 | 4.94502 | 17067 ft | 402 kts | 191° |
| 2026-04-28 18:41 | 59.94442 | 4.93499 | 17671 ft | 406 kts | 191° |
| 2026-04-28 18:41 | 59.91651 | 4.92492 | 18289 ft | 410 kts | 191° |
| 2026-04-28 18:41 | 59.88825 | 4.91478 | 18886 ft | 414 kts | 191° |
| 2026-04-28 18:41 | 59.85976 | 4.90463 | 19439 ft | 418 kts | 191° |
| 2026-04-28 18:42 | 59.83104 | 4.89442 | 20024 ft | 421 kts | 191° |
| 2026-04-28 18:42 | 59.80211 | 4.88409 | 20619 ft | 424 kts | 191° |
| 2026-04-28 18:42 | 59.77295 | 4.87370 | 21210 ft | 427 kts | 191° |
| 2026-04-28 18:42 | 59.74362 | 4.86328 | 21784 ft | 430 kts | 191° |
| 2026-04-28 18:43 | 59.71412 | 4.85277 | 22337 ft | 433 kts | 191° |
| 2026-04-28 18:43 | 59.68440 | 4.84215 | 22891 ft | 436 kts | 191° |
| 2026-04-28 18:43 | 59.65444 | 4.83148 | 23454 ft | 439 kts | 191° |
| 2026-04-28 18:43 | 59.62430 | 4.82080 | 24014 ft | 442 kts | 191° |
| 2026-04-28 18:44 | 59.59396 | 4.81012 | 24468 ft | 445 kts | 191° |
| 2026-04-28 18:44 | 59.53249 | 4.78849 | 25321 ft | 452 kts | 191° |
| 2026-04-28 18:44 | 59.50137 | 4.77758 | 25736 ft | 455 kts | 190° |
| 2026-04-28 18:45 | 59.47046 | 4.76675 | 26126 ft | 459 kts | 190° |
| 2026-04-28 18:45 | 59.43894 | 4.75570 | 26526 ft | 462 kts | 190° |
| 2026-04-28 18:45 | 59.40723 | 4.74464 | 26918 ft | 465 kts | 190° |
| 2026-04-28 18:45 | 59.37519 | 4.73349 | 27315 ft | 469 kts | 190° |
| 2026-04-28 18:46 | 59.34290 | 4.72230 | 27678 ft | 472 kts | 190° |
| 2026-04-28 18:46 | 59.31046 | 4.71106 | 28050 ft | 475 kts | 190° |
| 2026-04-28 18:46 | 59.27786 | 4.69974 | 28420 ft | 478 kts | 190° |
| 2026-04-28 18:46 | 59.24500 | 4.68833 | 28785 ft | 481 kts | 190° |
| 2026-04-28 18:47 | 59.21195 | 4.67687 | 29144 ft | 484 kts | 189° |
| 2026-04-28 18:47 | 59.17862 | 4.66540 | 29496 ft | 488 kts | 189° |
| 2026-04-28 18:47 | 59.14506 | 4.65391 | 29848 ft | 491 kts | 189° |
| 2026-04-28 18:47 | 59.11132 | 4.64237 | 30197 ft | 494 kts | 189° |
| 2026-04-28 18:48 | 59.07738 | 4.63076 | 30540 ft | 497 kts | 189° |
| 2026-04-28 18:48 | 59.04327 | 4.61909 | 30837 ft | 500 kts | 189° |
| 2026-04-28 18:48 | 59.00893 | 4.60739 | 31136 ft | 502 kts | 189° |
| 2026-04-28 18:48 | 58.97438 | 4.59567 | 31431 ft | 505 kts | 189° |
| 2026-04-28 18:49 | 58.93973 | 4.58394 | 31760 ft | 506 kts | 189° |
| 2026-04-28 18:49 | 58.92847 | 4.58013 | 31901 ft | 506 kts | 189° |
| 2026-04-28 18:49 | 58.87043 | 4.56045 | 32606 ft | 505 kts | 189° |
| 2026-04-28 18:49 | 58.83631 | 4.54889 | 33003 ft | 505 kts | 189° |
| 2026-04-28 18:50 | 58.80126 | 4.53699 | 33406 ft | 505 kts | 189° |
| 2026-04-28 18:50 | 58.76703 | 4.52543 | 33813 ft | 505 kts | 189° |
| 2026-04-28 18:50 | 58.73245 | 4.51381 | 34225 ft | 505 kts | 189° |
| 2026-04-28 18:50 | 58.69791 | 4.50228 | 34616 ft | 505 kts | 189° |
| 2026-04-28 18:51 | 58.66328 | 4.49077 | 34974 ft | 504 kts | 189° |
| 2026-04-28 18:51 | 58.62878 | 4.47931 | 35338 ft | 503 kts | 189° |
| 2026-04-28 18:51 | 58.59428 | 4.46782 | 35700 ft | 502 kts | 189° |
| 2026-04-28 18:51 | 58.55990 | 4.45632 | 36057 ft | 501 kts | 189° |
| 2026-04-28 18:52 | 58.52563 | 4.44490 | 36396 ft | 500 kts | 189° |
| 2026-04-28 18:52 | 58.49134 | 4.43353 | 36502 ft | 499 kts | 189° |
| 2026-04-28 18:52 | 58.42306 | 4.41101 | 36518 ft | 498 kts | 189° |
| 2026-04-28 18:53 | 58.35481 | 4.38863 | 36516 ft | 497 kts | 189° |
| 2026-04-28 18:53 | 58.28667 | 4.36621 | 36513 ft | 497 kts | 191° |
| 2026-04-28 18:54 | 58.25389 | 4.34634 | 36521 ft | 495 kts | 207° |
| 2026-04-28 18:54 | 58.22473 | 4.31235 | 36474 ft | 490 kts | 223° |
| 2026-04-28 18:54 | 58.17313 | 4.22856 | 36498 ft | 488 kts | 224° |
| 2026-04-28 18:55 | 58.13044 | 4.15831 | 36510 ft | 489 kts | 224° |
| 2026-04-28 18:55 | 58.07058 | 4.06030 | 36514 ft | 489 kts | 224° |
| 2026-04-28 18:56 | 58.01890 | 3.97653 | 36521 ft | 490 kts | 223° |
| 2026-04-28 18:56 | 57.96709 | 3.89310 | 36531 ft | 490 kts | 224° |
| 2026-04-28 18:57 | 57.91531 | 3.80956 | 36534 ft | 490 kts | 224° |
| 2026-04-28 18:57 | 57.86341 | 3.72634 | 36536 ft | 490 kts | 223° |
| 2026-04-28 18:58 | 57.81135 | 3.64321 | 36520 ft | 491 kts | 223° |
| 2026-04-28 18:58 | 57.75972 | 3.56115 | 36528 ft | 490 kts | 223° |
| 2026-04-28 18:59 | 57.70768 | 3.47859 | 36537 ft | 490 kts | 223° |
| 2026-04-28 18:59 | 57.65571 | 3.39635 | 36540 ft | 489 kts | 223° |
| 2026-04-28 19:00 | 57.60364 | 3.31435 | 36548 ft | 489 kts | 223° |
| 2026-04-28 19:00 | 57.55148 | 3.23292 | 36542 ft | 489 kts | 222° |
| 2026-04-28 19:01 | 57.50803 | 3.16531 | 36541 ft | 490 kts | 222° |
| 2026-04-28 19:01 | 57.45581 | 3.08401 | 36541 ft | 490 kts | 222° |
| 2026-04-28 19:02 | 57.40354 | 3.00290 | 36538 ft | 490 kts | 222° |
| 2026-04-28 19:02 | 57.35113 | 2.92214 | 36525 ft | 489 kts | 222° |
| 2026-04-28 19:03 | 57.29873 | 2.84154 | 36518 ft | 489 kts | 221° |
| 2026-04-28 19:03 | 57.24629 | 2.76109 | 36521 ft | 490 kts | 221° |
| 2026-04-28 19:04 | 57.19382 | 2.68112 | 36519 ft | 490 kts | 221° |
| 2026-04-28 19:04 | 57.14122 | 2.60122 | 36531 ft | 490 kts | 221° |
| 2026-04-28 19:05 | 57.08859 | 2.52160 | 36531 ft | 490 kts | 221° |
| 2026-04-28 19:05 | 57.03595 | 2.44220 | 36534 ft | 490 kts | 221° |
| 2026-04-28 19:06 | 56.98332 | 2.36285 | 36532 ft | 490 kts | 221° |
| 2026-04-28 19:06 | 56.93052 | 2.28383 | 36520 ft | 490 kts | 220° |
| 2026-04-28 19:07 | 56.87769 | 2.20524 | 36530 ft | 490 kts | 220° |
| 2026-04-28 19:07 | 56.82476 | 2.12683 | 36528 ft | 489 kts | 220° |
| 2026-04-28 19:08 | 56.77189 | 2.04860 | 36537 ft | 490 kts | 220° |
| 2026-04-28 19:08 | 56.71923 | 1.97085 | 36536 ft | 490 kts | 220° |
| 2026-04-28 19:09 | 56.66600 | 1.89239 | 36543 ft | 490 kts | 220° |
| 2026-04-28 19:09 | 56.61329 | 1.81524 | 36537 ft | 490 kts | 220° |
| 2026-04-28 19:10 | 56.56015 | 1.73785 | 36551 ft | 490 kts | 219° |
| 2026-04-28 19:10 | 56.50698 | 1.66064 | 36520 ft | 490 kts | 219° |
| 2026-04-28 19:11 | 56.45383 | 1.58366 | 36539 ft | 489 kts | 219° |
| 2026-04-28 19:11 | 56.40057 | 1.50684 | 36536 ft | 489 kts | 219° |
| 2026-04-28 19:12 | 56.34733 | 1.43042 | 36535 ft | 489 kts | 219° |
| 2026-04-28 19:12 | 56.29404 | 1.35408 | 36515 ft | 489 kts | 218° |
| 2026-04-28 19:13 | 56.24080 | 1.27809 | 36531 ft | 488 kts | 218° |
| 2026-04-28 19:13 | 56.18765 | 1.20241 | 36534 ft | 487 kts | 218° |
| 2026-04-28 19:14 | 56.13479 | 1.12762 | 36520 ft | 487 kts | 218° |
| 2026-04-28 19:14 | 56.08152 | 1.05266 | 36528 ft | 486 kts | 218° |
| 2026-04-28 19:15 | 56.02838 | 0.97809 | 36532 ft | 486 kts | 218° |
| 2026-04-28 19:15 | 55.98385 | 0.91567 | 36535 ft | 485 kts | 218° |
| 2026-04-28 19:16 | 55.92210 | 0.82934 | 36536 ft | 485 kts | 218° |
| 2026-04-28 19:16 | 55.86878 | 0.75516 | 36530 ft | 485 kts | 218° |
| 2026-04-28 19:17 | 55.81550 | 0.68137 | 36524 ft | 485 kts | 218° |
| 2026-04-28 19:17 | 55.76216 | 0.60769 | 36540 ft | 485 kts | 217° |
| 2026-04-28 19:18 | 55.70884 | 0.53418 | 36516 ft | 485 kts | 217° |
| 2026-04-28 19:18 | 55.65543 | 0.46099 | 36521 ft | 485 kts | 217° |
| 2026-04-28 19:19 | 55.60200 | 0.38797 | 36528 ft | 485 kts | 217° |
| 2026-04-28 19:19 | 55.54883 | 0.31560 | 36526 ft | 485 kts | 217° |
| 2026-04-28 19:20 | 55.49526 | 0.24303 | 36534 ft | 485 kts | 217° |
| 2026-04-28 19:20 | 55.44171 | 0.17059 | 36526 ft | 485 kts | 217° |
| 2026-04-28 19:21 | 55.38809 | 0.09821 | 36522 ft | 486 kts | 217° |
| 2026-04-28 19:21 | 55.33438 | 0.02615 | 36517 ft | 486 kts | 216° |
| 2026-04-28 19:22 | 55.28964 | -0.03357 | 36504 ft | 485 kts | 216° |
| 2026-04-28 19:22 | 55.22683 | -0.11732 | 36522 ft | 485 kts | 216° |
| 2026-04-28 19:23 | 55.17299 | -0.18873 | 36520 ft | 486 kts | 216° |
| 2026-04-28 19:23 | 55.11906 | -0.26009 | 36518 ft | 486 kts | 216° |
| 2026-04-28 19:24 | 55.06518 | -0.33129 | 36516 ft | 486 kts | 216° |
| 2026-04-28 19:24 | 55.01117 | -0.40233 | 36510 ft | 486 kts | 216° |
| 2026-04-28 19:25 | 54.95717 | -0.47313 | 36525 ft | 486 kts | 215° |
| 2026-04-28 19:25 | 54.90303 | -0.54385 | 36516 ft | 487 kts | 216° |
| 2026-04-28 19:26 | 54.84890 | -0.61439 | 36509 ft | 487 kts | 215° |
| 2026-04-28 19:26 | 54.79496 | -0.68416 | 36514 ft | 487 kts | 215° |
| 2026-04-28 19:27 | 54.74064 | -0.75431 | 36527 ft | 487 kts | 215° |
| 2026-04-28 19:27 | 54.68633 | -0.82433 | 36474 ft | 486 kts | 215° |
| 2026-04-28 19:28 | 54.65920 | -0.85921 | 35914 ft | 486 kts | 214° |
| 2026-04-28 19:28 | 54.63199 | -0.89407 | 35351 ft | 486 kts | 214° |
| 2026-04-28 19:28 | 54.60490 | -0.92871 | 34877 ft | 484 kts | 214° |
| 2026-04-28 19:28 | 54.57792 | -0.96320 | 34408 ft | 482 kts | 214° |
| 2026-04-28 19:29 | 54.55108 | -0.99748 | 33896 ft | 479 kts | 214° |
| 2026-04-28 19:29 | 54.53340 | -1.02004 | 33578 ft | 476 kts | 214° |
| 2026-04-28 19:29 | 54.49793 | -1.06517 | 32955 ft | 472 kts | 214° |
| 2026-04-28 19:29 | 54.47161 | -1.09858 | 32511 ft | 468 kts | 214° |
| 2026-04-28 19:30 | 54.44551 | -1.13167 | 32071 ft | 464 kts | 214° |
| 2026-04-28 19:30 | 54.41960 | -1.16448 | 31650 ft | 461 kts | 214° |
| 2026-04-28 19:30 | 54.39383 | -1.19706 | 31444 ft | 459 kts | 213° |
| 2026-04-28 19:30 | 54.36808 | -1.22951 | 31480 ft | 459 kts | 213° |
| 2026-04-28 19:31 | 54.31654 | -1.29422 | 31461 ft | 460 kts | 213° |
| 2026-04-28 19:31 | 54.26489 | -1.35894 | 31457 ft | 460 kts | 213° |
| 2026-04-28 19:32 | 54.21334 | -1.42361 | 31466 ft | 460 kts | 213° |
| 2026-04-28 19:32 | 54.16162 | -1.48822 | 31462 ft | 460 kts | 213° |
| 2026-04-28 19:33 | 54.11017 | -1.55205 | 31456 ft | 460 kts | 213° |
| 2026-04-28 19:33 | 54.05805 | -1.61645 | 31399 ft | 459 kts | 213° |
| 2026-04-28 19:34 | 54.03229 | -1.64828 | 30962 ft | 456 kts | 213° |
| 2026-04-28 19:34 | 54.00801 | -1.68297 | 30569 ft | 455 kts | 221° |
| 2026-04-28 19:34 | 53.98538 | -1.71934 | 30110 ft | 452 kts | 221° |
| 2026-04-28 19:34 | 53.96254 | -1.75600 | 29693 ft | 450 kts | 220° |
| 2026-04-28 19:35 | 53.93988 | -1.79226 | 29262 ft | 447 kts | 220° |
| 2026-04-28 19:35 | 53.91735 | -1.82823 | 28861 ft | 443 kts | 220° |
| 2026-04-28 19:35 | 53.89498 | -1.86393 | 28478 ft | 440 kts | 220° |
| 2026-04-28 19:35 | 53.87270 | -1.89942 | 28072 ft | 437 kts | 220° |
| 2026-04-28 19:36 | 53.85059 | -1.93460 | 27687 ft | 436 kts | 220° |
| 2026-04-28 19:36 | 53.82851 | -1.96961 | 27241 ft | 435 kts | 220° |
| 2026-04-28 19:36 | 53.80641 | -2.00453 | 26806 ft | 434 kts | 220° |
| 2026-04-28 19:36 | 53.78432 | -2.03940 | 26381 ft | 433 kts | 220° |
| 2026-04-28 19:37 | 53.76180 | -2.07298 | 25958 ft | 430 kts | 213° |
| 2026-04-28 19:37 | 53.74544 | -2.09143 | 25674 ft | 425 kts | 205° |
| 2026-04-28 19:37 | 53.70973 | -2.11728 | 25159 ft | 413 kts | 189° |
| 2026-04-28 19:37 | 53.68194 | -2.12894 | 24758 ft | 409 kts | 187° |
| 2026-04-28 19:38 | 53.65442 | -2.14025 | 24447 ft | 404 kts | 187° |
| 2026-04-28 19:38 | 53.62727 | -2.15151 | 24147 ft | 400 kts | 187° |
| 2026-04-28 19:38 | 53.60044 | -2.16268 | 23815 ft | 395 kts | 187° |
| 2026-04-28 19:38 | 53.57405 | -2.17364 | 23462 ft | 389 kts | 187° |
| 2026-04-28 19:39 | 53.54774 | -2.18450 | 23105 ft | 385 kts | 187° |
| 2026-04-28 19:39 | 53.52212 | -2.19501 | 22755 ft | 383 kts | 187° |
| 2026-04-28 19:39 | 53.49629 | -2.20558 | 22410 ft | 380 kts | 187° |
| 2026-04-28 19:39 | 53.47069 | -2.21601 | 22068 ft | 378 kts | 187° |
| 2026-04-28 19:40 | 53.44520 | -2.22638 | 21729 ft | 376 kts | 187° |
| 2026-04-28 19:40 | 53.41979 | -2.23677 | 21406 ft | 374 kts | 187° |
| 2026-04-28 19:40 | 53.39452 | -2.24661 | 20941 ft | 371 kts | 182° |
| 2026-04-28 19:40 | 53.36917 | -2.24936 | 20436 ft | 361 kts | 169° |
| 2026-04-28 19:41 | 53.34470 | -2.24335 | 19962 ft | 351 kts | 158° |
| 2026-04-28 19:41 | 53.32207 | -2.22969 | 19482 ft | 342 kts | 147° |
| 2026-04-28 19:41 | 53.30135 | -2.21087 | 19009 ft | 339 kts | 143° |
| 2026-04-28 19:41 | 53.28070 | -2.19167 | 18512 ft | 339 kts | 144° |
| 2026-04-28 19:42 | 53.26009 | -2.17260 | 17970 ft | 338 kts | 144° |
| 2026-04-28 19:42 | 53.23955 | -2.15368 | 17434 ft | 335 kts | 144° |
| 2026-04-28 19:42 | 53.21935 | -2.13515 | 16928 ft | 329 kts | 144° |
| 2026-04-28 19:42 | 53.20617 | -2.12307 | 16585 ft | 325 kts | 144° |
| 2026-04-28 19:43 | 53.17999 | -2.09914 | 15907 ft | 317 kts | 145° |
| 2026-04-28 19:43 | 53.16081 | -2.08162 | 15405 ft | 312 kts | 145° |
| 2026-04-28 19:43 | 53.14187 | -2.06422 | 14917 ft | 309 kts | 145° |
| 2026-04-28 19:43 | 53.12341 | -2.04723 | 14437 ft | 306 kts | 145° |
| 2026-04-28 19:44 | 53.10489 | -2.03018 | 13928 ft | 304 kts | 146° |
| 2026-04-28 19:44 | 53.08640 | -2.01319 | 13393 ft | 304 kts | 146° |
| 2026-04-28 19:44 | 53.06810 | -1.99527 | 12701 ft | 307 kts | 145° |
| 2026-04-28 19:44 | 53.04986 | -1.97711 | 11917 ft | 302 kts | 139° |
| 2026-04-28 19:45 | 53.03370 | -1.95553 | 11161 ft | 297 kts | 136° |
| 2026-04-28 19:45 | 53.01796 | -1.93337 | 10439 ft | 295 kts | 135° |
| 2026-04-28 19:45 | 53.00252 | -1.91136 | 9654 ft | 292 kts | 135° |
| 2026-04-28 19:45 | 52.98714 | -1.88941 | 8886 ft | 289 kts | 135° |
| 2026-04-28 19:46 | 52.97197 | -1.86776 | 8120 ft | 287 kts | 135° |
| 2026-04-28 19:46 | 52.95686 | -1.84620 | 7363 ft | 285 kts | 135° |
| 2026-04-28 19:46 | 52.94189 | -1.82486 | 6618 ft | 282 kts | 135° |
| 2026-04-28 19:46 | 52.92722 | -1.80402 | 6020 ft | 275 kts | 135° |
| 2026-04-28 19:47 | 52.91288 | -1.78383 | 5499 ft | 266 kts | 135° |
| 2026-04-28 19:47 | 52.89901 | -1.76451 | 5070 ft | 255 kts | 135° |
| 2026-04-28 19:47 | 52.89009 | -1.75217 | 4767 ft | 249 kts | 135° |
| 2026-04-28 19:47 | 52.87692 | -1.73416 | 4336 ft | 242 kts | 135° |
| 2026-04-28 19:48 | 52.86402 | -1.71688 | 3902 ft | 235 kts | 135° |
| 2026-04-28 19:48 | 52.85138 | -1.70032 | 3516 ft | 227 kts | 135° |
| 2026-04-28 19:48 | 52.83924 | -1.68461 | 3173 ft | 215 kts | 131° |
| 2026-04-28 19:48 | 52.83032 | -1.66659 | 3002 ft | 189 kts | 112° |
| 2026-04-28 19:49 | 52.82590 | -1.64763 | 3002 ft | 170 kts | 97° |
| 2026-04-28 19:49 | 52.82501 | -1.62870 | 3000 ft | 163 kts | 85° |
| 2026-04-28 19:49 | 52.82541 | -1.60999 | 3002 ft | 163 kts | 86° |
| 2026-04-28 19:49 | 52.82581 | -1.59117 | 3009 ft | 163 kts | 86° |
| 2026-04-28 19:50 | 52.82658 | -1.55382 | 2825 ft | 162 kts | 86° |
| 2026-04-28 19:50 | 52.82696 | -1.53529 | 2627 ft | 161 kts | 85° |
| 2026-04-28 19:50 | 52.82733 | -1.51693 | 2416 ft | 159 kts | 85° |
| 2026-04-28 19:51 | 52.82770 | -1.49869 | 2225 ft | 157 kts | 84° |
| 2026-04-28 19:51 | 52.82805 | -1.48093 | 2000 ft | 152 kts | 84° |
| 2026-04-28 19:51 | 52.82837 | -1.46409 | 1776 ft | 141 kts | 84° |
| 2026-04-28 19:51 | 52.82868 | -1.44833 | 1582 ft | 134 kts | 84° |
| 2026-04-28 19:52 | 52.82899 | -1.43303 | 1399 ft | 131 kts | 84° |
| 2026-04-28 19:52 | 52.82929 | -1.41791 | 1215 ft | 132 kts | 82° |
| 2026-04-28 19:52 | 52.82957 | -1.40286 | 1028 ft | 131 kts | 82° |
| 2026-04-28 19:52 | 52.82984 | -1.38802 | 855 ft | 130 kts | 84° |
| 2026-04-28 19:53 | 52.83017 | -1.37293 | 680 ft | 132 kts | 86° |
| 2026-04-28 19:53 | 52.83041 | -1.35769 | 461 ft | 131 kts | 84° |
| 2026-04-28 19:53 | 52.83072 | -1.34267 | 312 ft | 129 kts | 83° |
| 2026-04-28 19:53 | 52.83095 | -1.33006 | 305 ft | 86 kts | 89° |
| 2026-04-28 19:54 | 52.83110 | -1.32297 | 302 ft | 38 kts | 88° |
| 2026-04-28 19:54 | 52.83116 | -1.31900 | 307 ft | 33 kts | 88° |
| 2026-04-28 19:54 | 52.83123 | -1.31528 | 309 ft | 28 kts | 88° |
| 2026-04-28 19:54 | 52.83120 | -1.31358 | 306 ft | 10 kts | 112° |
| 2026-04-28 19:55 | 52.83077 | -1.31320 | 305 ft | 6 kts | 174° |
| 2026-04-28 19:55 | 52.83019 | -1.31313 | 302 ft | 12 kts | 176° |
| 2026-04-28 19:55 | 52.82960 | -1.31402 | 303 ft | 14 kts | 263° |
| 2026-04-28 19:55 | 52.82954 | -1.31574 | 302 ft | 16 kts | 267° |
| 2026-04-28 19:56 | 52.82950 | -1.31773 | 301 ft | 17 kts | 268° |
| 2026-04-28 19:56 | 52.82947 | -1.31940 | 303 ft | 14 kts | 269° |
| 2026-04-28 19:56 | 52.82944 | -1.32122 | 301 ft | 17 kts | 268° |
| 2026-04-28 19:56 | 52.82939 | -1.32336 | 302 ft | 20 kts | 268° |
| 2026-04-28 19:57 | 52.82936 | -1.32565 | 301 ft | 18 kts | 267° |
| 2026-04-28 19:57 | 52.82932 | -1.32731 | 302 ft | 14 kts | 269° |
| 2026-04-28 19:57 | 52.82930 | -1.32820 | 304 ft | 7 kts | 261° |
| 2026-04-28 19:57 | 52.82875 | -1.32860 | 301 ft | 10 kts | 177° |
| 2026-04-28 19:58 | 52.82811 | -1.32877 | 303 ft | 8 kts | 221° |
| 2026-04-28 19:58 | 52.82793 | -1.32975 | 301 ft | 10 kts | 265° |
| 2026-04-28 19:58 | 52.82786 | -1.33054 | 304 ft | 6 kts | 240° |
| 2026-04-28 19:58 | 52.82764 | -1.33066 | 301 ft | 3 kts | 180° |
| 2026-04-28 19:59 | 52.82751 | -1.33065 | 301 ft | 1 kts | 178° |
| 2026-04-28 19:59 | 52.82734 | -1.33064 | 301 ft | 1 kts | 177° |
| 2026-04-28 19:59 | 52.82722 | -1.33063 | 301 ft | 1 kts | 177° |
| 2026-04-28 19:59 | 52.82721 | -1.33063 | 301 ft | 0 kts | 177° |